createdAt,value
2023-02-03T00:01:46.016Z,29.33
2023-02-03T00:04:12.489Z,25.40
2023-02-03T00:06:39.595Z,25.40
2023-02-03T00:09:06.099Z,25.35
2023-02-03T00:11:32.651Z,29.23
2023-02-03T00:13:59.329Z,31.58
2023-02-03T00:16:25.751Z,27.23
2023-02-03T00:18:52.185Z,25.65
2023-02-03T00:21:18.564Z,23.90
2023-02-03T00:23:44.901Z,25.08
2023-02-03T00:26:16.658Z,21.40
2023-02-03T00:28:43.256Z,28.00
2023-02-03T00:31:17.832Z,25.70
2023-02-03T00:33:44.325Z,23.10
2023-02-03T00:36:11.315Z,21.95
2023-02-03T00:38:37.693Z,22.88
2023-02-03T00:41:04.197Z,22.60
2023-02-03T00:43:30.666Z,24.05
2023-02-03T00:45:57.151Z,22.90
2023-02-03T00:48:23.529Z,20.83
2023-02-03T00:50:49.957Z,22.50
2023-02-03T00:53:16.356Z,23.55
2023-02-03T00:55:43.710Z,22.15
2023-02-03T00:58:10.248Z,21.77
2023-02-03T01:00:36.655Z,23.65
2023-02-03T01:03:03.328Z,25.27
2023-02-03T01:05:29.750Z,19.60
2023-02-03T01:07:56.147Z,22.45
2023-02-03T01:10:22.568Z,21.55
2023-02-03T01:12:48.953Z,24.25
2023-02-03T01:15:15.354Z,21.35
2023-02-03T01:17:41.731Z,21.13
2023-02-03T01:20:08.946Z,22.75
2023-02-03T01:22:35.325Z,24.77
2023-02-03T01:25:01.752Z,21.13
2023-02-03T01:27:28.060Z,23.02
2023-02-03T01:29:54.489Z,20.60
2023-02-03T01:32:20.986Z,20.17
2023-02-03T01:34:47.347Z,22.02
2023-02-03T01:37:17.049Z,22.55
2023-02-03T01:39:44.088Z,21.17
2023-02-03T01:42:15.174Z,20.13
2023-02-03T01:44:52.015Z,18.23
2023-02-03T01:47:27.787Z,18.23
2023-02-03T01:50:09.132Z,21.42
2023-02-03T01:52:37.728Z,21.08
2023-02-03T01:55:07.590Z,17.50
2023-02-03T01:57:39.895Z,18.55
2023-02-03T02:00:08.003Z,18.52
2023-02-03T02:02:34.426Z,19.55
2023-02-03T02:05:14.678Z,22.05
2023-02-03T02:07:42.639Z,20.10
2023-02-03T02:10:09.904Z,21.38
2023-02-03T02:12:36.430Z,20.75
2023-02-03T02:15:03.851Z,17.55
2023-02-03T02:17:39.350Z,17.73
2023-02-03T02:20:05.637Z,18.63
2023-02-03T02:22:50.702Z,20.52
2023-02-03T02:25:26.140Z,19.55
2023-02-03T02:28:03.994Z,17.50
2023-02-03T02:30:49.715Z,19.60
2023-02-03T02:33:40.962Z,17.08
2023-02-03T02:36:07.329Z,18.67
2023-02-03T02:38:48.223Z,16.45
2023-02-03T02:41:52.371Z,20.10
2023-02-03T02:44:35.329Z,16.13
2023-02-03T02:47:11.128Z,19.75
2023-02-03T02:49:44.613Z,18.80
2023-02-03T02:52:14.867Z,21.83
2023-02-03T02:54:46.898Z,22.23
2023-02-03T02:57:16.105Z,19.10
2023-02-03T02:59:42.659Z,19.27
2023-02-03T03:02:11.699Z,19.92
2023-02-03T03:04:38.677Z,20.17
2023-02-03T03:07:11.880Z,21.15
2023-02-03T03:09:50.547Z,22.17
2023-02-03T03:12:29.365Z,19.02
2023-02-03T03:15:00.991Z,21.27
2023-02-03T03:17:34.917Z,20.38
2023-02-03T03:20:08.710Z,20.67
2023-02-03T03:22:41.459Z,20.33
2023-02-03T03:25:15.473Z,23.08
2023-02-03T03:27:48.336Z,22.25
2023-02-03T03:30:23.467Z,22.77
2023-02-03T03:32:50.784Z,21.65
2023-02-03T03:35:17.755Z,24.25
2023-02-03T03:37:50.494Z,22.55
2023-02-03T03:40:25.750Z,20.45
2023-02-03T03:43:01.205Z,21.05
2023-02-03T03:45:38.200Z,21.00
2023-02-03T03:48:34.060Z,21.73
2023-02-03T03:51:05.196Z,22.70
2023-02-03T03:53:34.512Z,21.23
2023-02-03T03:56:03.567Z,18.65
2023-02-03T03:58:32.379Z,20.15
2023-02-03T04:01:05.140Z,19.73
2023-02-03T04:03:56.892Z,18.05
2023-02-03T04:06:23.704Z,20.33
2023-02-03T04:08:50.306Z,20.20
2023-02-03T04:11:36.634Z,21.35
2023-02-03T04:14:03.439Z,18.63
2023-02-03T04:16:29.987Z,20.75
2023-02-03T04:18:58.839Z,20.90
2023-02-03T04:21:25.237Z,19.00
2023-02-03T04:23:52.231Z,18.73
2023-02-03T04:26:18.691Z,18.98
2023-02-03T04:28:45.123Z,17.65
2023-02-03T04:31:11.694Z,17.92
2023-02-03T04:33:38.104Z,22.50
2023-02-03T04:36:04.700Z,20.42
2023-02-03T04:38:31.100Z,21.27
2023-02-03T04:40:57.540Z,21.90
2023-02-03T04:43:23.940Z,19.17
2023-02-03T04:45:50.606Z,19.33
2023-02-03T04:48:17.038Z,20.20
2023-02-03T04:50:43.452Z,21.90
2023-02-03T04:53:09.788Z,20.88
2023-02-03T04:55:36.166Z,19.75
2023-02-03T04:58:02.708Z,23.23
2023-02-03T05:00:29.764Z,21.20
2023-02-03T05:02:56.373Z,18.90
2023-02-03T05:05:22.777Z,20.48
2023-02-03T05:07:49.171Z,20.63
2023-02-03T05:10:23.526Z,20.85
2023-02-03T05:12:50.019Z,21.33
2023-02-03T05:15:16.425Z,21.17
2023-02-03T05:17:42.850Z,20.48
2023-02-03T05:20:10.141Z,21.40
2023-02-03T05:22:36.594Z,21.08
2023-02-03T05:25:04.015Z,19.88
2023-02-03T05:27:30.703Z,20.02
2023-02-03T05:29:57.180Z,19.98
2023-02-03T05:32:23.536Z,20.90
2023-02-03T05:34:49.927Z,20.80
2023-02-03T05:37:16.445Z,18.70
2023-02-03T05:39:43.116Z,20.50
2023-02-03T05:42:09.467Z,19.65
2023-02-03T05:44:40.006Z,19.40
2023-02-03T05:47:06.369Z,17.88
2023-02-03T05:49:32.829Z,20.15
2023-02-03T05:51:59.472Z,18.33
2023-02-03T05:54:25.905Z,17.75
2023-02-03T05:56:52.567Z,18.95
2023-02-03T05:59:18.935Z,16.88
2023-02-03T06:01:45.303Z,16.63
2023-02-03T06:04:11.973Z,15.02
2023-02-03T06:06:38.462Z,16.63
2023-02-03T06:09:07.755Z,14.85
2023-02-03T06:11:35.873Z,14.90
2023-02-03T06:14:02.802Z,14.77
2023-02-03T06:16:29.580Z,15.98
2023-02-03T06:19:00.773Z,15.40
2023-02-03T06:21:28.312Z,15.43
2023-02-03T06:23:55.861Z,15.15
2023-02-03T06:26:22.305Z,14.65
2023-02-03T06:28:48.736Z,15.70
2023-02-03T06:31:15.352Z,14.75
2023-02-03T06:33:41.844Z,14.60
2023-02-03T06:36:08.633Z,16.23
2023-02-03T06:38:34.989Z,15.52
2023-02-03T06:41:01.409Z,17.38
2023-02-03T06:43:30.272Z,16.17
2023-02-03T06:45:56.625Z,16.48
2023-02-03T06:48:23.739Z,16.90
2023-02-03T06:50:50.747Z,18.52
2023-02-03T06:53:17.294Z,17.77
2023-02-03T06:55:43.652Z,17.20
2023-02-03T06:58:09.989Z,16.83
2023-02-03T07:00:36.450Z,18.33
2023-02-03T07:03:03.069Z,18.73
2023-02-03T07:05:29.890Z,18.10
2023-02-03T07:07:56.386Z,18.45
2023-02-03T07:10:23.159Z,17.25
2023-02-03T07:12:50.708Z,17.30
2023-02-03T07:15:17.850Z,18.75
2023-02-03T07:17:44.253Z,16.40
2023-02-03T07:20:11.151Z,16.90
2023-02-03T07:22:38.625Z,16.52
2023-02-03T07:25:05.354Z,16.80
2023-02-03T07:27:31.697Z,16.42
2023-02-03T07:29:58.059Z,14.10
2023-02-03T07:32:24.409Z,14.88
2023-02-03T07:34:50.732Z,13.60
2023-02-03T07:37:17.113Z,15.02
2023-02-03T07:39:43.521Z,14.50
2023-02-03T07:42:09.925Z,14.10
2023-02-03T07:44:36.289Z,13.75
2023-02-03T07:47:02.673Z,14.45
2023-02-03T07:49:29.003Z,14.80
2023-02-03T07:51:56.433Z,16.17
2023-02-03T07:54:22.774Z,16.83
2023-02-03T07:56:49.176Z,16.30
2023-02-03T07:59:16.969Z,17.05
2023-02-03T08:01:43.370Z,16.60
2023-02-03T08:04:12.023Z,15.20
2023-02-03T08:06:38.362Z,13.80
2023-02-03T08:09:04.807Z,14.60
2023-02-03T08:11:32.491Z,14.23
2023-02-03T08:13:58.861Z,14.27
2023-02-03T08:16:25.273Z,13.85
2023-02-03T08:18:52.142Z,12.38
2023-02-03T08:21:18.759Z,10.93
2023-02-03T08:23:45.078Z,12.70
2023-02-03T08:26:11.418Z,11.45
2023-02-03T08:28:37.887Z,13.93
2023-02-03T08:31:11.117Z,13.50
2023-02-03T08:33:37.695Z,13.10
2023-02-03T08:36:05.747Z,11.55
2023-02-03T08:38:32.557Z,12.57
2023-02-03T08:40:59.108Z,12.98
2023-02-03T08:43:25.488Z,12.32
2023-02-03T08:45:52.111Z,11.98
2023-02-03T08:48:18.518Z,12.30
2023-02-03T08:50:51.810Z,12.82
2023-02-03T08:53:18.680Z,14.30
2023-02-03T08:55:45.022Z,12.18
2023-02-03T08:58:11.379Z,12.60
2023-02-03T09:00:37.814Z,15.85
2023-02-03T09:03:04.245Z,15.05
2023-02-03T09:05:31.617Z,15.50
2023-02-03T09:07:58.250Z,14.50
2023-02-03T09:10:24.711Z,16.98
2023-02-03T09:12:51.333Z,20.83
2023-02-03T09:15:17.837Z,19.40
2023-02-03T09:17:44.279Z,27.05
2023-02-03T09:20:13.172Z,21.90
2023-02-03T09:22:39.677Z,20.25
2023-02-03T09:25:07.390Z,22.20
2023-02-03T09:27:33.738Z,21.67
2023-02-03T09:30:00.089Z,23.70
2023-02-03T09:32:26.520Z,24.63
2023-02-03T09:34:52.874Z,25.48
2023-02-03T09:37:19.385Z,23.58
2023-02-03T09:39:45.804Z,24.08
2023-02-03T09:42:28.691Z,27.08
2023-02-03T09:45:07.010Z,26.48
2023-02-03T09:47:38.260Z,24.38
2023-02-03T09:50:11.777Z,25.67
2023-02-03T09:52:40.865Z,26.65
2023-02-03T09:55:20.561Z,25.77
2023-02-03T09:57:57.092Z,23.48
2023-02-03T10:00:31.260Z,29.33
2023-02-03T10:03:23.140Z,29.02
2023-02-03T10:05:57.769Z,28.20
2023-02-03T10:08:51.365Z,30.90
2023-02-03T10:11:49.552Z,28.83
2023-02-03T10:14:42.728Z,32.83
2023-02-03T10:17:26.450Z,32.85
2023-02-03T10:20:01.311Z,42.97
2023-02-03T10:22:30.751Z,49.97
2023-02-03T10:25:07.245Z,43.97
2023-02-03T10:27:35.227Z,48.92
2023-02-03T10:30:17.078Z,58.53
2023-02-03T10:32:43.465Z,51.25
2023-02-03T10:35:13.983Z,51.72
2023-02-03T10:37:48.135Z,54.75
2023-02-03T10:40:16.856Z,56.60
2023-02-03T10:43:15.404Z,51.05
2023-02-03T10:45:41.864Z,63.55
2023-02-03T10:48:15.963Z,61.13
2023-02-03T10:50:47.915Z,64.38
2023-02-03T10:53:40.622Z,60.67
2023-02-03T10:56:13.059Z,58.50
2023-02-03T10:58:46.335Z,68.65
2023-02-03T11:01:15.056Z,57.10
2023-02-03T11:03:44.161Z,60.13
2023-02-03T11:06:16.115Z,58.75
2023-02-03T11:08:46.445Z,55.05
2023-02-03T11:11:25.456Z,56.75
2023-02-03T11:14:13.044Z,54.10
2023-02-03T11:16:41.183Z,59.70
2023-02-03T11:19:19.959Z,51.55
2023-02-03T11:21:50.377Z,51.38
2023-02-03T11:24:32.898Z,47.90
2023-02-03T11:27:07.543Z,48.88
2023-02-03T11:29:37.535Z,47.75
2023-02-03T11:32:18.083Z,48.53
2023-02-03T11:34:57.541Z,49.28
2023-02-03T11:37:31.650Z,41.65
2023-02-03T11:40:26.570Z,40.35
2023-02-03T11:42:53.151Z,45.40
2023-02-03T11:45:29.059Z,47.10
2023-02-03T11:48:06.236Z,37.72
2023-02-03T11:50:51.552Z,40.60
2023-02-03T11:53:57.296Z,35.63
2023-02-03T11:56:50.668Z,31.75
2023-02-03T11:59:35.721Z,31.50
2023-02-03T12:02:22.854Z,26.55
2023-02-03T12:05:11.202Z,27.35
2023-02-03T12:08:15.522Z,25.90
2023-02-03T12:11:14.779Z,20.07
2023-02-03T12:14:00.883Z,24.02
2023-02-03T12:16:52.201Z,21.95
2023-02-03T12:19:27.105Z,22.80
2023-02-03T12:22:14.145Z,23.48
2023-02-03T12:28:54.918Z,24.67
2023-02-03T12:31:39.426Z,21.92
2023-02-03T12:36:58.740Z,23.88
2023-02-03T12:39:51.675Z,22.98
2023-02-03T12:42:51.224Z,20.83
2023-02-03T12:45:33.745Z,23.27
2023-02-03T12:48:19.002Z,24.65
2023-02-03T12:50:52.125Z,22.23
2023-02-03T12:53:31.036Z,23.83
2023-02-03T12:56:06.637Z,25.98
2023-02-03T12:58:47.488Z,22.50
2023-02-03T13:01:30.351Z,21.58
2023-02-03T13:04:16.788Z,23.60
2023-02-03T13:07:21.230Z,21.10
2023-02-03T13:09:56.636Z,21.52
2023-02-03T13:12:37.369Z,22.77
2023-02-03T13:15:22.346Z,23.20
2023-02-03T13:17:55.622Z,22.38
2023-02-03T13:20:24.839Z,23.20
2023-02-03T13:22:53.277Z,22.95
2023-02-03T13:25:28.620Z,23.30
2023-02-03T13:28:13.796Z,24.40
2023-02-03T13:30:59.020Z,22.45
2023-02-03T13:33:36.255Z,22.20
2023-02-03T13:36:18.237Z,25.30
2023-02-03T13:39:09.341Z,24.38
2023-02-03T13:41:39.595Z,24.08
2023-02-03T13:44:13.693Z,23.60
2023-02-03T13:46:43.045Z,22.73
2023-02-03T13:49:10.101Z,22.42
2023-02-03T13:51:45.619Z,23.75
2023-02-03T13:54:26.593Z,25.33
2023-02-03T13:57:01.327Z,22.98
2023-02-03T13:59:42.423Z,23.65
2023-02-03T14:02:24.429Z,26.15
2023-02-03T14:04:54.548Z,27.13
2023-02-03T14:07:24.619Z,26.77
2023-02-03T14:10:12.316Z,26.65
2023-02-03T14:13:05.406Z,25.75
2023-02-03T14:15:33.415Z,25.25
2023-02-03T14:18:01.529Z,27.60
2023-02-03T14:20:27.866Z,27.13
2023-02-03T14:23:06.592Z,29.38
2023-02-03T14:25:39.495Z,27.17
2023-02-03T14:28:10.668Z,28.35
2023-02-03T14:31:06.529Z,21.77
2023-02-03T14:33:49.419Z,23.52
2023-02-03T14:36:29.902Z,23.45
2023-02-03T14:38:59.958Z,23.55
2023-02-03T14:41:31.080Z,21.85
2023-02-03T14:44:16.679Z,24.52
2023-02-03T14:47:10.088Z,24.52
2023-02-03T14:49:45.620Z,21.38
2023-02-03T14:52:33.231Z,21.17
2023-02-03T14:55:14.406Z,22.05
2023-02-03T14:57:49.038Z,19.92
2023-02-03T15:00:26.118Z,22.55
2023-02-03T15:03:10.349Z,21.70
2023-02-03T15:05:45.545Z,20.52
2023-02-03T15:08:36.937Z,20.00
2023-02-03T15:11:28.606Z,22.98
2023-02-03T15:13:57.351Z,21.58
2023-02-03T15:16:25.177Z,22.45
2023-02-03T15:19:00.537Z,22.35
2023-02-03T15:21:27.029Z,22.92
2023-02-03T15:23:54.024Z,23.30
2023-02-03T15:26:25.763Z,22.13
2023-02-03T15:29:00.771Z,23.90
2023-02-03T15:31:37.174Z,26.42
2023-02-03T15:34:17.437Z,27.67
2023-02-03T15:36:48.647Z,26.85
2023-02-03T15:39:23.051Z,28.17
2023-02-03T15:41:54.664Z,26.98
2023-02-03T15:44:41.096Z,26.92
2023-02-03T15:47:21.148Z,29.20
2023-02-03T15:49:58.833Z,31.83
2023-02-03T15:52:28.981Z,30.88
2023-02-03T15:55:09.956Z,31.83
2023-02-03T15:57:37.442Z,35.92
2023-02-03T16:00:28.771Z,35.47
2023-02-03T16:02:57.942Z,38.13
2023-02-03T16:05:28.327Z,40.17
2023-02-03T16:07:55.670Z,43.67
2023-02-03T16:10:31.689Z,50.88
2023-02-03T16:13:23.989Z,49.65
2023-02-03T16:16:08.288Z,51.38
2023-02-03T16:18:36.900Z,55.53
2023-02-03T16:21:05.283Z,55.67
2023-02-03T16:23:32.113Z,53.00
2023-02-03T16:26:02.298Z,55.53
2023-02-03T16:28:47.060Z,56.65
2023-02-03T16:31:35.271Z,56.88
2023-02-03T16:34:30.924Z,64.22
2023-02-03T16:37:17.187Z,57.50
2023-02-03T16:40:02.038Z,56.22
2023-02-03T16:42:56.494Z,55.67
2023-02-03T16:45:42.280Z,54.20
2023-02-03T16:48:29.683Z,58.03
2023-02-03T16:50:59.335Z,56.28
2023-02-03T16:53:28.121Z,55.55
2023-02-03T16:55:57.579Z,51.42
2023-02-03T16:58:24.498Z,50.00
2023-02-03T17:00:52.827Z,51.10
2023-02-03T17:03:24.291Z,49.75
2023-02-03T17:05:51.751Z,47.33
2023-02-03T17:08:20.931Z,48.58
2023-02-03T17:10:50.601Z,46.58
2023-02-03T17:13:19.633Z,53.55
2023-02-03T17:15:49.779Z,48.15
2023-02-03T17:18:16.580Z,41.05
2023-02-03T17:20:44.469Z,39.90
2023-02-03T17:23:12.162Z,34.22
2023-02-03T17:25:39.608Z,34.47
2023-02-03T17:28:08.223Z,36.30
2023-02-03T17:30:35.615Z,33.45
2023-02-03T17:33:03.662Z,33.35
2023-02-03T17:35:30.411Z,30.77
2023-02-03T17:37:57.162Z,22.00
2023-02-03T17:54:10.388Z,21.67
2023-02-03T17:56:36.936Z,24.52
2023-02-03T17:59:05.655Z,24.15
2023-02-03T18:01:32.357Z,23.73
2023-02-03T18:04:03.549Z,24.33
2023-02-03T18:06:32.019Z,22.48
2023-02-03T18:09:01.283Z,24.88
2023-02-03T18:11:29.013Z,30.92
2023-02-03T18:13:56.180Z,22.83
2023-02-03T18:16:28.803Z,31.90
2023-02-03T18:18:56.540Z,27.92
2023-02-03T18:21:24.651Z,37.35
2023-02-03T18:23:51.533Z,41.42
2023-02-03T18:26:19.716Z,41.65
2023-02-03T18:28:46.663Z,46.55
2023-02-03T18:31:15.752Z,44.97
2023-02-03T18:33:44.254Z,48.95
2023-02-03T18:36:12.671Z,46.38
2023-02-03T18:38:40.280Z,52.30
2023-02-03T18:41:19.014Z,48.85
2023-02-03T18:43:46.746Z,49.28
2023-02-03T18:46:17.371Z,50.65
2023-02-03T18:48:52.389Z,55.63
2023-02-03T18:51:21.132Z,53.10
2023-02-03T18:53:51.574Z,47.53
2023-02-03T18:56:24.973Z,53.20
2023-02-03T18:58:51.611Z,51.10
2023-02-03T19:01:29.220Z,53.03
2023-02-03T19:03:57.127Z,56.85
2023-02-03T19:06:24.695Z,49.17
2023-02-03T19:08:51.558Z,50.72
2023-02-03T19:11:19.901Z,53.83
2023-02-03T19:13:46.403Z,58.10
2023-02-03T19:16:16.562Z,53.70
2023-02-03T19:18:44.927Z,54.70
2023-02-03T19:21:12.691Z,52.33
2023-02-03T19:23:40.948Z,56.47
2023-02-03T19:26:07.758Z,53.45
2023-02-03T19:28:35.446Z,55.78
2023-02-03T19:31:07.905Z,53.10
2023-02-03T19:33:34.657Z,53.80
2023-02-03T19:36:01.072Z,53.65
2023-02-03T19:38:27.446Z,48.88
2023-02-03T19:40:53.916Z,50.42
2023-02-03T19:43:20.301Z,48.55
2023-02-03T19:45:46.847Z,43.25
2023-02-03T19:48:13.316Z,41.22
2023-02-03T19:50:40.851Z,38.25
2023-02-03T19:53:09.398Z,43.47
2023-02-03T19:55:35.739Z,41.67
2023-02-03T19:58:02.496Z,41.63
2023-02-03T20:00:29.164Z,38.40
2023-02-03T20:02:55.816Z,42.78
2023-02-03T20:05:22.407Z,31.58
2023-02-03T20:07:48.844Z,38.85
2023-02-03T20:10:15.508Z,41.80
2023-02-03T20:12:41.867Z,38.10
2023-02-03T20:15:08.275Z,38.35
2023-02-03T20:17:34.649Z,37.53
2023-02-03T20:20:01.158Z,39.67
2023-02-03T20:22:27.617Z,37.75
2023-02-03T20:24:53.996Z,38.13
2023-02-03T20:27:20.594Z,36.92
2023-02-03T20:29:48.662Z,36.97
2023-02-03T20:32:15.307Z,32.53
2023-02-03T20:34:41.646Z,30.45
2023-02-03T20:37:08.453Z,30.80
2023-02-03T20:39:34.979Z,25.85
2023-02-03T20:42:01.387Z,26.20
2023-02-03T20:44:27.896Z,27.80
2023-02-03T20:46:55.755Z,24.08
2023-02-03T20:49:22.266Z,26.05
2023-02-03T20:51:48.623Z,27.52
2023-02-03T20:54:18.714Z,27.05
2023-02-03T20:56:45.673Z,28.73
2023-02-03T20:59:15.079Z,29.42
2023-02-03T21:01:41.621Z,28.08
2023-02-03T21:04:34.023Z,27.42
2023-02-03T21:07:01.419Z,28.98
2023-02-03T21:09:27.929Z,28.27
2023-02-03T21:11:55.390Z,32.25
2023-02-03T21:14:25.303Z,26.05
2023-02-03T21:16:53.960Z,28.50
2023-02-03T21:19:33.051Z,25.50
2023-02-03T21:22:04.052Z,26.52
2023-02-03T21:24:35.594Z,27.90
2023-02-03T21:27:02.361Z,25.77
2023-02-03T21:29:33.779Z,29.27
2023-02-03T21:32:00.358Z,29.00
2023-02-03T21:34:34.877Z,24.58
2023-02-03T21:37:12.295Z,23.17
2023-02-03T21:39:38.628Z,30.15
2023-02-03T21:42:40.774Z,26.20
2023-02-03T21:45:24.814Z,29.17
2023-02-03T21:47:52.488Z,30.17
2023-02-03T21:50:33.643Z,24.55
2023-02-03T21:53:09.969Z,25.60
2023-02-03T21:55:38.172Z,30.90
2023-02-03T21:58:31.640Z,24.48
2023-02-03T22:00:59.950Z,25.92
2023-02-03T22:03:40.593Z,22.08
2023-02-03T22:06:13.575Z,29.63
2023-02-03T22:08:43.386Z,28.02
2023-02-03T22:11:09.857Z,28.92
2023-02-03T22:13:36.635Z,24.23
2023-02-03T22:16:03.923Z,27.92
2023-02-03T22:18:30.849Z,29.02
2023-02-03T22:20:57.341Z,25.70
2023-02-03T22:23:23.927Z,28.17
2023-02-03T22:26:40.060Z,26.58
2023-02-03T22:29:11.087Z,29.45
2023-02-03T22:31:37.628Z,24.90
2023-02-03T22:34:06.796Z,32.90
2023-02-03T22:36:33.234Z,26.20
2023-02-03T22:39:01.319Z,27.33
2023-02-03T22:41:37.425Z,21.20
2023-02-03T22:44:03.831Z,24.65
2023-02-03T22:46:38.384Z,30.40
2023-02-03T22:49:04.822Z,29.67
2023-02-03T22:51:31.155Z,28.52
2023-02-03T22:53:57.541Z,24.58
2023-02-03T22:56:23.889Z,25.30
2023-02-03T22:58:50.251Z,31.67
2023-02-03T23:01:16.638Z,23.95
2023-02-03T23:03:43.058Z,27.13
2023-02-03T23:06:09.375Z,27.48
2023-02-03T23:08:35.751Z,27.45
2023-02-03T23:11:02.672Z,25.08
2023-02-03T23:13:29.132Z,20.88
2023-02-03T23:15:55.555Z,21.58
2023-02-03T23:18:21.963Z,21.90
2023-02-03T23:20:48.279Z,17.17
2023-02-03T23:23:14.632Z,16.42
2023-02-03T23:25:40.963Z,17.77
2023-02-03T23:28:07.418Z,21.35
2023-02-03T23:30:34.109Z,23.88
2023-02-03T23:33:00.506Z,23.17
2023-02-03T23:35:45.179Z,23.83
2023-02-03T23:38:12.258Z,26.08
2023-02-03T23:40:38.604Z,32.28
2023-02-03T23:43:04.979Z,24.42
2023-02-03T23:45:31.386Z,22.23
2023-02-03T23:47:57.909Z,25.52
2023-02-03T23:50:24.244Z,19.98
2023-02-03T23:52:50.611Z,22.83
2023-02-03T23:55:19.218Z,20.73
2023-02-03T23:57:45.835Z,22.83
